Flight Track Log - Related Links

Times and Time Zones

All times are in EDT time to prevent confusion due to time zone crossing. See the ERR736 flight status page for this flight to view local times or setup timezone preferences in your user account.

Time Position Orientation Groundspeed Altitude Reporting Facility
EDT Latitude Longitude Course Direction KTS MPH feet Rate Location/Type
Wed 06:24:49 PM 64.7500 -148.1000 276° West 160 184 6,900  Level Anchorage Center
Wed 06:25:49 PM 64.7667 -148.2167 289° West 160 184 8,700 1,537 Climbing Anchorage Center
Wed 06:26:50 PM 64.7833 -148.3167 291° West 170 196 10,000 1,388 Climbing Anchorage Center
Wed 06:27:00 PM 64.8001 -148.6900 270° West  Level FlightAware Approximate
Wed 06:27:50 PM 64.8000 -148.4000 295° West 170 196 11,500  Level Anchorage Center
Wed 06:28:00 PM 64.8013 -148.8298 276° West  Level FlightAware Approximate
Wed 06:28:50 PM 64.8000 -148.5167 270° West 180 207 12,700  Level Anchorage Center
Wed 06:29:00 PM 64.8075 -148.9691 276° West  Level FlightAware Approximate
Wed 06:29:50 PM 64.8000 -148.6333 270° West 180 207 13,900  Level Anchorage Center
Wed 06:30:00 PM 64.8135 -149.1085 276° West  Level FlightAware Approximate
Wed 06:30:51 PM 64.8000 -148.7500 270° West 180 207 15,000  Level Anchorage Center
Wed 06:31:51 PM 64.8000 -148.8833 270° West 180 207 15,900 950 Climbing Anchorage Center
Wed 06:32:51 PM 64.8167 -149.0000 289° West 180 207 16,900 950 Climbing Anchorage Center
Wed 06:33:51 PM 64.8167 -149.1167 270° West 180 207 17,800 942 Climbing Anchorage Center
Wed 06:34:52 PM 64.8167 -149.2333 270° West 180 207 18,800 843 Climbing Anchorage Center
Wed 06:35:52 PM 64.8167 -149.3667 270° West 180 207 19,500 750 Climbing Anchorage Center
Wed 06:36:52 PM 64.8167 -149.4833 270° West 190 219 20,300 744 Climbing Anchorage Center
Wed 06:37:53 PM 64.8167 -149.6000 270° West 190 219 21,000 744 Climbing Anchorage Center
Wed 06:38:53 PM 64.8167 -149.7333 270° West 180 207 21,800 700 Climbing Anchorage Center
Wed 06:39:53 PM 64.8167 -149.8500 270° West 190 219 22,400 645 Climbing Anchorage Center
Wed 06:40:54 PM 64.8167 -149.9667 270° West 180 207 23,100 595 Climbing Anchorage Center
Wed 06:41:54 PM 64.8167 -150.0833 270° West 190 219 23,600 450 Climbing Anchorage Center
Wed 06:42:54 PM 64.8167 -150.2167 270° West 190 219 24,000 198 Climbing Anchorage Center
Wed 06:43:55 PM 64.8333 -150.3500 286° West 210 242 24,000  Level Anchorage Center
Wed 06:44:55 PM 64.8333 -150.4833 270° West 220 253 24,000  Level Anchorage Center
Wed 06:45:55 PM 64.8333 -150.6333 270° West 230 265 24,000  Level Anchorage Center
Wed 06:46:56 PM 64.8333 -150.7833 270° West 230 265 24,000  Level Anchorage Center
Wed 06:47:56 PM 64.8333 -150.9333 270° West 230 265 24,000  Level Anchorage Center
Wed 06:48:56 PM 64.8333 -151.0833 270° West 230 265 24,000  Level Anchorage Center
Wed 06:49:57 PM 64.8333 -151.2333 270° West 240 276 24,000  Level Anchorage Center
Wed 06:50:56 PM 64.8333 -151.3833 270° West 230 265 24,000  Level Anchorage Center
Wed 06:51:57 PM 64.8333 -151.5333 270° West 230 265 24,000  Level Anchorage Center
Wed 06:52:57 PM 64.8333 -151.6833 270° West 230 265 24,000  Level Anchorage Center
Wed 06:53:58 PM 64.8333 -151.8333 270° West 230 265 24,000  Level Anchorage Center
Wed 06:54:58 PM 64.8333 -151.9833 270° West 230 265 24,000  Level Anchorage Center
Wed 06:55:58 PM 64.8167 -152.1333 255° West 210 242 24,000  Level Anchorage Center
Wed 06:56:59 PM 64.8167 -152.2833 270° West 220 253 24,000  Level Anchorage Center
Wed 06:57:59 PM 64.8167 -152.4333 270° West 240 276 24,000  Level Anchorage Center
Wed 06:58:59 PM 64.8167 -152.5833 270° West 240 276 24,000  Level Anchorage Center
Wed 07:00:00 PM 64.8167 -152.7333 270° West 230 265 24,000  Level Anchorage Center
Wed 07:01:00 PM 64.8167 -152.8833 270° West 230 265 24,000  Level Anchorage Center
Wed 07:02:00 PM 64.8167 -153.0333 270° West 230 265 24,000  Level Anchorage Center
Wed 07:03:01 PM 64.8167 -153.2000 270° West 230 265 24,000  Level Anchorage Center
Wed 07:04:01 PM 64.8167 -153.3500 270° West 240 276 24,000  Level Anchorage Center
Wed 07:05:01 PM 64.8167 -153.5000 270° West 230 265 24,000  Level Anchorage Center
Wed 07:06:02 PM 64.8167 -153.6500 270° West 240 276 24,000  Level Anchorage Center
Wed 07:07:01 PM 64.8000 -153.8000 255° West 230 265 24,000  Level Anchorage Center
Wed 07:08:02 PM 64.8000 -153.9667 270° West 230 265 24,000  Level Anchorage Center
Wed 07:09:02 PM 64.8000 -154.1167 270° West 230 265 24,000  Level Anchorage Center
Wed 07:10:02 PM 64.8000 -154.2667 270° West 240 276 24,000 -99 Level Anchorage Center
Wed 07:11:03 PM 64.7833 -154.4167 255° West 230 265 23,800 -893 Descending Anchorage Center
Wed 07:12:03 PM 64.7833 -154.5833 270° West 250 288 22,200 -1,550 Descending Anchorage Center
Wed 07:13:03 PM 64.7833 -154.7500 270° West 270 311 20,700 -1,587 Descending Anchorage Center
Wed 07:14:04 PM 64.7667 -154.9333 258° West 270 311 19,000 -1,587 Descending Anchorage Center
Wed 07:15:04 PM 64.7667 -155.1000 270° West 270 311 17,500 -1,636 Descending Anchorage Center
Wed 07:16:05 PM 64.7667 -155.2833 270° West 280 322 15,700 -1,785 Descending Anchorage Center
Wed 07:17:05 PM 64.7667 -155.4500 270° West 250 288 13,900 -1,800 Descending Anchorage Center
Wed 07:18:05 PM 64.7500 -155.6167 257° West 270 311 12,100 -1,900 Descending Anchorage Center
Wed 07:19:05 PM 64.7500 -155.7833 270° West 240 276 10,100 -1,835 Descending Anchorage Center
Wed 07:20:06 PM 64.7500 -155.9167 270° West 210 242 8,400 -1,537 Descending Anchorage Center
Wed 07:21:06 PM 64.7333 -156.0500 254° West 190 219 7,000 -1,500 Descending Anchorage Center
Wed 07:22:06 PM 64.7333 -156.1667 270° West 180 207 5,400 -1,339 Descending Anchorage Center
Wed 07:23:07 PM 64.7333 -156.2833 270° West 190 219 4,300 -1,082 Descending Anchorage Center
Wed 07:26:00 PM 64.7353 -156.5433 259° West  Level FlightAware Approximate
Wed 07:33:00 PM 64.7333 -156.9333 270° West  Level FlightAware Approximate
Wed 07:34:00 PM 64.7362 -156.9374 270° West  Level Estimated
Wed 07:35:00 PM 64.7333 -156.9333 270° West  Level FlightAware Approximate
Wed 07:36:00 PM 64.7362 -156.9374 270° West  Level Estimated
Wed 07:37:00 PM 64.7333 -156.9333 270° West  Level FlightAware Approximate
Wed 07:38:00 PM 64.7362 -156.9374 270° West  Level Estimated
Wed 07:39:00 PM 64.7333 -156.9333 270° West  Level FlightAware Approximate
Wed 07:40:00 PM 64.7362 -156.9374 270° West  Level Estimated
Wed 07:41:00 PM 64.7333 -156.9333 270° West  Level FlightAware Approximate
Wed 07:42:00 PM 64.7362 -156.9374 270° West  Level Estimated

Login

Don't have an account? Register now (free) for customized features, flight alerts, and more!